Time;durP1;ratioP1;P1;durP2;ratioP2;P2;SDS_P1;SDS_P2;PMS_P1;PMS_P2;Temp;Humidity;BMP_temperature;BMP_pressure;BME280_temperature;BME280_humidity;BME280_pressure;Samples;Min_cycle;Max_cycle;Signal;HPM_P1;HPM_P2
2022/07/12 00:01:50;;;;;;;2.10;1.05;;;18.00;99.90;;;;;;5129711;27;45696;-72
2022/07/12 00:04:17;;;;;;;2.88;1.35;;;18.00;99.90;;;;;;5131183;27;48169;-72
2022/07/12 00:06:45;;;;;;;0.88;0.70;;;17.90;99.90;;;;;;5134066;27;45350;-72
2022/07/12 00:09:12;;;;;;;1.40;0.82;;;17.80;99.90;;;;;;5130999;27;45409;-72
2022/07/12 00:11:39;;;;;;;1.50;0.98;;;17.70;99.90;;;;;;5137641;27;45571;-73
2022/07/12 00:14:06;;;;;;;1.30;1.00;;;17.60;99.90;;;;;;5135213;27;46303;-72
2022/07/12 00:16:33;;;;;;;3.45;1.33;;;17.60;99.90;;;;;;5134057;27;45661;-72
2022/07/12 00:19:00;;;;;;;4.97;1.25;;;17.60;99.90;;;;;;5132957;27;45464;-72
2022/07/12 00:21:27;;;;;;;1.88;1.25;;;17.60;99.90;;;;;;5127570;27;45387;-73
2022/07/12 00:23:55;;;;;;;1.88;1.17;;;17.50;99.90;;;;;;5130648;27;45279;-72
2022/07/12 00:26:23;;;;;;;3.00;1.20;;;17.50;99.90;;;;;;5128338;27;45550;-72
2022/07/12 00:28:49;;;;;;;3.30;1.25;;;17.50;99.90;;;;;;5130701;27;45309;-72
2022/07/12 00:31:16;;;;;;;2.78;1.13;;;17.50;99.90;;;;;;5134388;27;45232;-72
2022/07/12 00:33:43;;;;;;;2.63;1.10;;;17.50;99.90;;;;;;5132634;27;45530;-72
2022/07/12 00:36:10;;;;;;;3.63;1.30;;;17.50;99.90;;;;;;5137140;27;45398;-72
2022/07/12 00:38:37;;;;;;;3.38;1.60;;;17.50;99.90;;;;;;5127379;27;45559;-72
2022/07/12 00:41:05;;;;;;;2.78;1.13;;;17.60;99.90;;;;;;5129582;27;45547;-72
2022/07/12 00:43:32;;;;;;;2.72;1.30;;;17.60;99.90;;;;;;5133108;27;45504;-71
2022/07/12 00:45:59;;;;;;;3.70;1.13;;;17.70;99.90;;;;;;5136491;27;45367;-72
2022/07/12 00:48:26;;;;;;;5.07;1.30;;;17.60;99.90;;;;;;5129691;27;45449;-72
2022/07/12 00:50:53;;;;;;;1.50;1.27;;;17.60;99.90;;;;;;5131987;27;45291;-71
2022/07/12 00:53:23;;;;;;;3.50;1.58;;;17.60;99.90;;;;;;5132555;27;48697;-72
2022/07/12 00:55:53;;;;;;;2.80;1.40;;;17.50;99.90;;;;;;5133360;27;45418;-72
2022/07/12 00:58:22;;;;;;;3.85;1.10;;;17.50;99.90;;;;;;5134445;27;45416;-72
2022/07/12 01:00:50;;;;;;;2.08;1.10;;;17.40;99.90;;;;;;5132782;27;45497;-72
2022/07/12 01:03:17;;;;;;;4.88;1.73;;;17.40;99.90;;;;;;5135343;27;46307;-72
2022/07/12 01:05:45;;;;;;;5.60;1.23;;;17.40;99.90;;;;;;5135861;27;45331;-72
2022/07/12 01:08:13;;;;;;;4.30;2.13;;;17.30;99.90;;;;;;5135646;27;45527;-72
2022/07/12 01:10:41;;;;;;;1.85;1.25;;;17.30;99.90;;;;;;5133231;27;45381;-72
2022/07/12 01:13:08;;;;;;;2.55;0.93;;;17.30;99.90;;;;;;5131315;27;46163;-72
2022/07/12 01:15:37;;;;;;;2.88;1.40;;;17.20;99.90;;;;;;5130440;27;45434;-72
2022/07/12 01:18:05;;;;;;;3.75;1.17;;;17.10;99.90;;;;;;5131287;27;45287;-72
2022/07/12 01:20:33;;;;;;;4.93;1.30;;;17.10;99.90;;;;;;5134556;27;45396;-72
2022/07/12 01:23:01;;;;;;;1.92;0.90;;;17.00;99.90;;;;;;5136366;27;46845;-72
2022/07/12 01:25:28;;;;;;;2.08;0.90;;;17.00;99.90;;;;;;5133770;27;45291;-73
2022/07/12 01:27:55;;;;;;;3.20;1.10;;;16.90;99.90;;;;;;5130467;27;45372;-72
2022/07/12 01:30:22;;;;;;;2.40;1.35;;;16.90;99.90;;;;;;5132310;27;45512;-72
2022/07/12 01:32:50;;;;;;;3.65;1.40;;;16.90;99.90;;;;;;5133262;27;46394;-72
2022/07/12 01:35:17;;;;;;;4.68;1.23;;;16.90;99.90;;;;;;5126938;27;45571;-72
2022/07/12 01:37:44;;;;;;;4.15;1.60;;;16.90;99.90;;;;;;5127258;27;45285;-72
2022/07/12 01:40:15;;;;;;;5.38;1.17;;;16.80;99.90;;;;;;5129426;27;45555;-72
2022/07/12 01:42:44;;;;;;;3.78;1.10;;;16.90;99.90;;;;;;5126443;27;45784;-73
2022/07/12 01:45:11;;;;;;;12.73;1.73;;;16.90;99.90;;;;;;5133851;27;45351;-72
2022/07/12 01:47:38;;;;;;;3.05;1.40;;;16.90;99.90;;;;;;5128637;27;45537;-72
2022/07/12 01:50:06;;;;;;;2.15;1.20;;;16.90;99.90;;;;;;5133358;27;45441;-72
2022/07/12 01:52:34;;;;;;;3.63;1.52;;;16.80;99.90;;;;;;5133507;27;46567;-72
2022/07/12 01:55:01;;;;;;;3.45;1.10;;;16.80;99.90;;;;;;5131618;27;45330;-72
2022/07/12 01:57:32;;;;;;;2.40;1.33;;;16.70;99.90;;;;;;5133332;27;45393;-72
2022/07/12 02:00:00;;;;;;;6.03;1.17;;;16.70;99.90;;;;;;5128041;27;45348;-72
2022/07/12 02:02:27;;;;;;;2.58;1.35;;;16.70;99.90;;;;;;5130349;27;48297;-72
2022/07/12 02:04:54;;;;;;;6.80;1.83;;;16.80;99.90;;;;;;5129325;27;45692;-72
2022/07/12 02:07:22;;;;;;;2.42;1.20;;;16.80;99.90;;;;;;5128551;27;45440;-72
2022/07/12 02:09:49;;;;;;;3.42;1.73;;;16.90;99.90;;;;;;5135506;27;45547;-72
2022/07/12 02:12:15;;;;;;;3.80;1.30;;;16.90;99.90;;;;;;5132348;27;47536;-72
2022/07/12 02:14:44;;;;;;;7.93;1.35;;;16.90;99.90;;;;;;5134569;27;45404;-72
2022/07/12 02:17:10;;;;;;;4.43;1.25;;;16.90;99.90;;;;;;5128099;27;45348;-72
2022/07/12 02:19:37;;;;;;;3.90;1.60;;;16.90;99.90;;;;;;5133017;27;45498;-71
2022/07/12 02:22:04;;;;;;;5.85;1.75;;;16.80;99.90;;;;;;5139280;27;47526;-71
2022/07/12 02:24:31;;;;;;;3.42;1.30;;;16.80;99.90;;;;;;5133794;27;45529;-71
2022/07/12 02:26:58;;;;;;;1.88;1.30;;;16.80;99.90;;;;;;5139938;27;45417;-71
2022/07/12 02:29:25;;;;;;;5.68;1.58;;;16.80;99.90;;;;;;5140798;27;45405;-72
2022/07/12 02:31:53;;;;;;;5.95;1.50;;;16.80;99.90;;;;;;5134624;27;45331;-71
2022/07/12 02:34:20;;;;;;;6.97;1.70;;;16.80;99.90;;;;;;5134576;27;45277;-72
2022/07/12 02:36:47;;;;;;;5.20;1.40;;;16.80;99.90;;;;;;5133327;27;45341;-71
2022/07/12 02:39:14;;;;;;;5.18;1.33;;;16.80;99.90;;;;;;5139903;27;45519;-71
2022/07/12 02:41:41;;;;;;;11.18;1.85;;;16.80;99.90;;;;;;5134844;27;46101;-71
2022/07/12 02:44:08;;;;;;;5.13;2.15;;;16.70;99.90;;;;;;5127618;27;45198;-72
2022/07/12 02:46:35;;;;;;;8.13;1.92;;;16.80;99.90;;;;;;5138022;27;45515;-72
2022/07/12 02:49:03;;;;;;;6.70;1.50;;;16.70;99.90;;;;;;5141951;27;45537;-73
2022/07/12 02:51:30;;;;;;;2.67;1.23;;;16.70;99.90;;;;;;5143715;27;45466;-72
2022/07/12 02:53:58;;;;;;;2.20;1.30;;;16.70;99.90;;;;;;5143958;27;45264;-72
2022/07/12 02:56:25;;;;;;;1.75;1.33;;;16.70;99.90;;;;;;5145896;27;45486;-71
2022/07/12 02:58:51;;;;;;;4.20;1.65;;;16.70;99.90;;;;;;5143894;27;45423;-72
2022/07/12 03:01:18;;;;;;;5.28;2.13;;;16.70;99.90;;;;;;5138539;27;45509;-71
2022/07/12 03:03:45;;;;;;;3.83;1.90;;;16.70;99.90;;;;;;5141509;27;45401;-73
2022/07/12 03:06:13;;;;;;;4.53;2.00;;;16.70;99.90;;;;;;5126474;27;45431;-72
2022/07/12 03:08:40;;;;;;;5.07;2.20;;;16.70;99.90;;;;;;5139898;27;45216;-71
2022/07/12 03:11:07;;;;;;;4.97;1.77;;;16.70;99.90;;;;;;5134145;27;45360;-72
2022/07/12 03:13:34;;;;;;;6.25;2.60;;;16.50;99.90;;;;;;5140858;27;45261;-71
2022/07/12 03:16:00;;;;;;;14.13;1.80;;;16.40;99.90;;;;;;5140169;27;45549;-72
2022/07/12 03:18:27;;;;;;;8.68;1.80;;;16.30;99.90;;;;;;5139505;27;45228;-72
2022/07/12 03:20:54;;;;;;;4.32;1.50;;;16.20;99.90;;;;;;5142062;27;45237;-71
2022/07/12 03:23:22;;;;;;;2.08;1.38;;;16.10;99.90;;;;;;5148364;27;45435;-71
2022/07/12 03:25:49;;;;;;;5.97;2.22;;;16.10;99.90;;;;;;5144568;27;45325;-71
2022/07/12 03:28:16;;;;;;;8.93;2.15;;;16.10;99.90;;;;;;5136473;27;45445;-72
2022/07/12 03:30:44;;;;;;;7.85;2.30;;;16.10;99.90;;;;;;5142729;27;46586;-72
2022/07/12 03:33:10;;;;;;;3.78;1.63;;;16.10;99.90;;;;;;5145185;27;45417;-72
2022/07/12 03:35:37;;;;;;;7.43;1.55;;;16.10;99.90;;;;;;5138300;27;45554;-71
2022/07/12 03:38:04;;;;;;;2.83;1.80;;;16.10;99.90;;;;;;5136104;27;45360;-71
2022/07/12 03:40:34;;;;;;;2.80;1.40;;;16.20;99.90;;;;;;5138914;27;46570;-71
2022/07/12 03:43:01;;;;;;;9.43;1.75;;;16.20;99.90;;;;;;5141242;27;45601;-72
2022/07/12 03:45:28;;;;;;;3.28;1.60;;;16.20;99.90;;;;;;5132305;27;45430;-71
2022/07/12 03:47:54;;;;;;;6.38;1.50;;;16.20;99.90;;;;;;5144003;27;45449;-72
2022/07/12 03:50:21;;;;;;;2.55;1.30;;;16.20;99.90;;;;;;5143598;27;46596;-71
2022/07/12 03:52:49;;;;;;;2.50;1.27;;;16.20;99.90;;;;;;5140182;27;45415;-71
2022/07/12 03:55:16;;;;;;;3.28;1.50;;;16.10;99.90;;;;;;5131310;27;45379;-71
2022/07/12 03:57:44;;;;;;;4.78;1.50;;;16.10;99.90;;;;;;5142426;27;45389;-71
2022/07/12 04:00:12;;;;;;;4.28;1.40;;;16.00;99.90;;;;;;5137541;27;46846;-71
2022/07/12 04:02:40;;;;;;;3.08;1.40;;;16.00;99.90;;;;;;5132549;27;45405;-72
2022/07/12 04:05:08;;;;;;;5.60;1.38;;;15.80;99.90;;;;;;5138824;27;45545;-71
2022/07/12 04:07:36;;;;;;;3.30;1.10;;;15.80;99.90;;;;;;5137011;27;45478;-71
2022/07/12 04:10:03;;;;;;;2.45;1.25;;;15.80;99.90;;;;;;5138067;27;47348;-71
2022/07/12 04:12:29;;;;;;;5.43;1.33;;;15.80;99.90;;;;;;5144296;27;45358;-72
2022/07/12 04:14:58;;;;;;;2.58;1.30;;;15.70;99.90;;;;;;5135944;27;45432;-72
2022/07/12 04:17:24;;;;;;;3.90;1.30;;;15.60;99.90;;;;;;5140092;27;45630;-73
2022/07/12 04:19:51;;;;;;;3.35;1.00;;;15.60;99.90;;;;;;5135526;27;47565;-72
2022/07/12 04:22:18;;;;;;;3.28;1.38;;;15.70;99.90;;;;;;5137383;27;45337;-71
2022/07/12 04:24:45;;;;;;;5.93;1.70;;;15.80;99.90;;;;;;5135788;27;45345;-72
2022/07/12 04:27:12;;;;;;;3.38;1.80;;;15.80;99.90;;;;;;5138443;27;45476;-72
2022/07/12 04:29:39;;;;;;;9.02;2.55;;;15.90;99.90;;;;;;5143183;27;46978;-73
2022/07/12 04:32:07;;;;;;;7.18;2.33;;;15.90;99.90;;;;;;5125258;27;45352;-72
2022/07/12 04:34:34;;;;;;;3.85;2.30;;;15.90;99.90;;;;;;5141865;27;45436;-71
2022/07/12 04:37:01;;;;;;;5.28;2.33;;;15.90;99.90;;;;;;5139529;27;45360;-72
2022/07/12 04:39:28;;;;;;;2.78;1.60;;;16.00;99.90;;;;;;5140908;27;47977;-71
2022/07/12 04:41:55;;;;;;;2.05;1.55;;;15.90;99.90;;;;;;5135724;27;45426;-71
2022/07/12 04:44:21;;;;;;;2.97;1.52;;;15.80;99.90;;;;;;5143944;27;45226;-72
2022/07/12 04:46:48;;;;;;;2.15;1.73;;;15.80;99.90;;;;;;5132011;27;45231;-71
2022/07/12 04:49:16;;;;;;;4.00;2.10;;;16.00;99.90;;;;;;5137083;27;45434;-72
2022/07/12 04:51:43;;;;;;;4.90;2.30;;;16.00;99.90;;;;;;5138486;27;45462;-72
2022/07/12 04:54:10;;;;;;;3.58;2.40;;;16.10;99.90;;;;;;5143997;27;45393;-72
2022/07/12 04:56:36;;;;;;;3.17;2.35;;;16.10;99.90;;;;;;5141266;27;45466;-71
2022/07/12 04:59:03;;;;;;;4.60;2.85;;;16.30;99.90;;;;;;5143918;27;46082;-72
2022/07/12 05:01:32;;;;;;;5.88;3.08;;;16.40;99.90;;;;;;5135259;27;45409;-72
2022/07/12 05:03:58;;;;;;;7.22;2.72;;;16.50;99.90;;;;;;5139185;27;45679;-72
2022/07/12 05:06:26;;;;;;;5.75;2.80;;;16.40;99.90;;;;;;5141960;27;45634;-72
2022/07/12 05:08:53;;;;;;;6.18;2.78;;;16.40;99.90;;;;;;5138669;27;46104;-72
2022/07/12 05:11:20;;;;;;;6.32;3.03;;;16.30;99.90;;;;;;5136242;27;45344;-72
2022/07/12 05:13:47;;;;;;;9.20;3.40;;;16.30;99.90;;;;;;5142813;27;45646;-72
2022/07/12 05:16:14;;;;;;;5.78;3.03;;;16.40;99.90;;;;;;5139959;27;45454;-72
2022/07/12 05:18:41;;;;;;;8.30;3.53;;;16.40;99.90;;;;;;5132485;27;45485;-72
2022/07/12 05:21:07;;;;;;;6.45;3.90;;;16.40;99.90;;;;;;5137961;27;45427;-72
2022/07/12 05:23:36;;;;;;;7.25;4.55;;;16.60;99.90;;;;;;5144035;27;45320;-72
2022/07/12 05:26:03;;;;;;;12.40;4.50;;;16.70;99.90;;;;;;5137636;27;45613;-72
2022/07/12 05:28:29;;;;;;;7.50;4.43;;;16.70;99.90;;;;;;5138208;27;45346;-71
2022/07/12 05:30:56;;;;;;;9.52;4.80;;;16.80;99.90;;;;;;5140386;27;45287;-71
2022/07/12 05:33:23;;;;;;;12.38;5.20;;;16.90;99.90;;;;;;5138522;27;45290;-72
2022/07/12 05:35:51;;;;;;;7.68;5.10;;;16.90;99.90;;;;;;5142365;27;45571;-71
2022/07/12 05:38:18;;;;;;;10.48;5.40;;;17.00;99.90;;;;;;5135534;27;47690;-72
2022/07/12 05:40:46;;;;;;;10.18;5.28;;;17.10;99.90;;;;;;5135092;27;45446;-72
2022/07/12 05:43:12;;;;;;;10.60;5.40;;;17.30;99.90;;;;;;5135746;27;45293;-71
2022/07/12 05:45:41;;;;;;;7.28;5.28;;;17.40;99.90;;;;;;5138436;27;45630;-71
2022/07/12 05:48:08;;;;;;;6.25;4.95;;;17.40;99.90;;;;;;5141501;27;46286;-72
2022/07/12 05:50:35;;;;;;;8.10;5.75;;;17.40;99.90;;;;;;5137921;27;45467;-72
2022/07/12 05:55:47;;;;;;;17.58;6.10;;;17.50;99.90;;;;;;5141655;27;45408;-72
2022/07/12 05:58:14;;;;;;;9.40;5.57;;;17.50;99.90;;;;;;5141805;27;47953;-71
2022/07/12 06:00:40;;;;;;;10.90;6.40;;;17.60;99.90;;;;;;5137746;27;45413;-72
2022/07/12 06:03:07;;;;;;;9.77;5.97;;;17.60;99.90;;;;;;5130548;27;45341;-72
2022/07/12 06:05:34;;;;;;;8.60;5.82;;;17.70;99.90;;;;;;5134431;27;45569;-72
2022/07/12 06:08:01;;;;;;;10.93;6.72;;;17.70;99.90;;;;;;5144002;27;47426;-73
2022/07/12 06:10:27;;;;;;;9.80;5.65;;;17.80;99.90;;;;;;5136803;27;45830;-72
2022/07/12 06:12:55;;;;;;;14.57;7.28;;;17.90;99.90;;;;;;5144148;27;45365;-72
2022/07/12 06:15:24;;;;;;;13.13;7.00;;;18.00;99.90;;;;;;5142572;27;45507;-72
2022/07/12 06:17:51;;;;;;;11.40;7.05;;;18.10;99.90;;;;;;5136101;27;48507;-72
2022/07/12 06:20:17;;;;;;;16.20;7.20;;;18.20;99.90;;;;;;5135741;27;45366;-72
2022/07/12 06:22:44;;;;;;;9.45;6.78;;;18.20;99.90;;;;;;5141912;27;45398;-72
2022/07/12 06:25:11;;;;;;;14.15;7.47;;;18.30;99.90;;;;;;5138485;27;45571;-72
2022/07/12 06:27:39;;;;;;;10.70;6.75;;;18.40;99.90;;;;;;5135778;27;47203;-72
2022/07/12 06:30:08;;;;;;;9.88;6.32;;;18.40;99.90;;;;;;5138752;27;45336;-72
2022/07/12 06:32:35;;;;;;;10.45;6.80;;;18.40;99.90;;;;;;5142807;27;45378;-72
2022/07/12 06:35:02;;;;;;;10.15;6.15;;;18.40;99.90;;;;;;5140204;27;45617;-71
2022/07/12 06:37:28;;;;;;;10.35;6.95;;;18.40;99.90;;;;;;5141914;27;45456;-72
2022/07/12 06:39:55;;;;;;;11.05;6.63;;;18.50;99.90;;;;;;5142217;27;45404;-72
2022/07/12 06:42:22;;;;;;;12.48;6.60;;;18.50;99.90;;;;;;5140002;27;45500;-72
2022/07/12 06:44:49;;;;;;;10.50;6.53;;;18.60;99.90;;;;;;5144937;27;45245;-72
2022/07/12 06:47:17;;;;;;;6.93;5.68;;;18.60;99.90;;;;;;5146007;27;46430;-72
2022/07/12 06:49:44;;;;;;;12.18;6.38;;;18.60;99.90;;;;;;5140652;27;45389;-72
2022/07/12 06:52:10;;;;;;;12.00;6.20;;;18.70;99.90;;;;;;5138336;27;45326;-72
2022/07/12 06:54:37;;;;;;;9.43;6.07;;;18.80;99.90;;;;;;5145233;27;45337;-72
2022/07/12 06:57:05;;;;;;;10.57;6.93;;;18.80;99.90;;;;;;5145208;27;45282;-73
2022/07/12 06:59:31;;;;;;;10.25;6.75;;;18.90;99.90;;;;;;5135908;27;45302;-71
2022/07/12 07:01:58;;;;;;;12.20;6.93;;;18.90;99.90;;;;;;5137549;27;45346;-73
2022/07/12 07:04:27;;;;;;;12.75;6.60;;;19.00;99.90;;;;;;5141056;27;45591;-72
2022/07/12 07:06:53;;;;;;;15.10;6.72;;;19.10;99.90;;;;;;5137548;27;46283;-72
2022/07/12 07:09:20;;;;;;;7.88;5.72;;;19.10;99.90;;;;;;5144576;27;45929;-72
2022/07/12 07:11:47;;;;;;;7.32;4.75;;;19.20;99.90;;;;;;5141800;27;45247;-72
2022/07/12 07:14:14;;;;;;;6.75;4.90;;;19.30;99.90;;;;;;5144342;27;45322;-72
2022/07/12 07:16:41;;;;;;;8.48;5.35;;;19.30;99.90;;;;;;5138852;27;48156;-72
2022/07/12 07:19:07;;;;;;;9.18;5.88;;;19.40;99.90;;;;;;5129347;27;45623;-74
2022/07/12 07:21:35;;;;;;;9.93;5.57;;;19.40;99.90;;;;;;5136943;27;45317;-72
2022/07/12 07:24:03;;;;;;;7.63;5.00;;;19.40;99.90;;;;;;5142103;27;45512;-72
2022/07/12 07:26:30;;;;;;;9.57;5.13;;;19.50;99.90;;;;;;5139616;27;46679;-72
2022/07/12 07:31:41;;;;;;;12.65;5.40;;;19.60;99.90;;;;;;5140769;27;45284;-73
2022/07/12 07:34:08;;;;;;;5.93;4.85;;;19.60;99.90;;;;;;5130116;27;45400;-72
2022/07/12 07:36:36;;;;;;;8.95;5.63;;;19.70;99.90;;;;;;5138901;27;46733;-71
2022/07/12 07:39:03;;;;;;;9.65;5.68;;;19.70;99.90;;;;;;5139119;27;45401;-70
2022/07/12 07:41:30;;;;;;;9.43;5.70;;;19.70;99.90;;;;;;5137029;27;45291;-72
2022/07/12 07:43:57;;;;;;;7.85;5.50;;;19.70;99.90;;;;;;5145403;27;45492;-72
2022/07/12 07:46:24;;;;;;;8.15;5.47;;;19.80;99.90;;;;;;5140488;27;45405;-72
2022/07/12 07:48:51;;;;;;;9.02;5.18;;;19.80;99.90;;;;;;5136054;27;45351;-72
2022/07/12 07:51:17;;;;;;;10.77;5.05;;;19.80;99.90;;;;;;5138366;27;45235;-72
2022/07/12 07:53:45;;;;;;;10.95;5.68;;;19.80;99.90;;;;;;5134828;27;45550;-72
2022/07/12 07:56:12;;;;;;;9.75;5.05;;;19.80;99.90;;;;;;5141239;27;45482;-72
2022/07/12 07:58:39;;;;;;;13.43;6.25;;;19.80;99.90;;;;;;5134098;27;45507;-72
2022/07/12 08:01:06;;;;;;;8.38;5.00;;;19.90;99.90;;;;;;5138042;27;45236;-72
2022/07/12 08:03:33;;;;;;;9.18;4.78;;;19.90;99.90;;;;;;5139055;27;45440;-71
2022/07/12 08:06:00;;;;;;;7.25;5.35;;;19.90;99.90;;;;;;5143158;27;46064;-72
2022/07/12 08:08:28;;;;;;;3.88;2.95;;;20.00;99.90;;;;;;5140152;27;45533;-72
2022/07/12 08:10:57;;;;;;;15.45;7.47;;;20.10;99.90;;;;;;5141637;27;45384;-72
2022/07/12 08:13:24;;;;;;;9.20;6.32;;;20.10;99.90;;;;;;5136468;27;45507;-72
2022/07/12 08:15:51;;;;;;;9.13;5.10;;;20.20;99.90;;;;;;5141282;27;47027;-72
2022/07/12 08:18:18;;;;;;;8.35;5.10;;;20.20;99.90;;;;;;5137319;27;45492;-72
2022/07/12 08:20:45;;;;;;;7.93;4.85;;;20.10;99.90;;;;;;5138817;27;45527;-72
2022/07/12 08:23:12;;;;;;;7.30;4.95;;;20.10;99.90;;;;;;5143910;27;45401;-72
2022/07/12 08:25:39;;;;;;;8.77;4.30;;;20.10;99.90;;;;;;5139197;27;46369;-72
2022/07/12 08:28:07;;;;;;;7.38;4.70;;;20.10;99.90;;;;;;5139930;27;45470;-72
2022/07/12 08:30:35;;;;;;;6.95;4.50;;;20.20;99.90;;;;;;5140033;27;45385;-70
2022/07/12 08:33:01;;;;;;;7.30;4.18;;;20.20;99.90;;;;;;5140515;27;45445;-72
2022/07/12 08:35:28;;;;;;;5.15;3.63;;;20.20;99.90;;;;;;5139157;27;46279;-72
2022/07/12 08:37:55;;;;;;;7.35;4.30;;;20.20;99.90;;;;;;5141033;27;45501;-72
2022/07/12 08:40:22;;;;;;;8.55;4.82;;;20.30;99.90;;;;;;5132452;27;45399;-72
2022/07/12 08:42:48;;;;;;;7.70;5.47;;;20.30;99.90;;;;;;5136591;27;45424;-72
2022/07/12 08:45:17;;;;;;;8.43;4.95;;;20.30;99.90;;;;;;5138327;27;46577;-73
2022/07/12 08:47:44;;;;;;;4.65;3.17;;;20.30;99.90;;;;;;5130302;27;45418;-71
2022/07/12 08:50:16;;;;;;;10.90;3.47;;;20.40;99.90;;;;;;5136081;27;45576;-72
2022/07/12 08:52:46;;;;;;;7.38;3.67;;;20.40;99.90;;;;;;5131593;27;45380;-72
2022/07/12 08:55:17;;;;;;;10.10;4.60;;;20.40;99.90;;;;;;5138465;27;47034;-71
2022/07/12 08:57:44;;;;;;;6.32;3.33;;;20.40;99.90;;;;;;5130687;27;45911;-72
2022/07/12 09:00:12;;;;;;;4.03;3.22;;;20.40;99.90;;;;;;5131941;27;45395;-72
2022/07/12 09:02:49;;;;;;;3.85;2.80;;;20.40;99.90;;;;;;5132236;27;45310;-72
2022/07/12 09:05:17;;;;;;;6.75;3.50;;;20.40;99.90;;;;;;5134851;27;47344;-71
2022/07/12 09:07:44;;;;;;;4.43;3.10;;;20.40;99.90;;;;;;5130239;27;45624;-72
2022/07/12 09:10:12;;;;;;;6.13;3.75;;;20.40;99.90;;;;;;5128806;27;45511;-72
2022/07/12 09:12:41;;;;;;;3.17;2.47;;;20.50;99.90;;;;;;5130470;27;45320;-72
2022/07/12 09:15:16;;;;;;;2.70;2.20;;;20.50;99.90;;;;;;5136689;27;46357;-72
2022/07/12 09:17:55;;;;;;;4.75;3.08;;;20.50;99.90;;;;;;5133696;27;45821;-73
2022/07/12 09:20:23;;;;;;;9.38;2.90;;;20.50;99.90;;;;;;5145200;27;45472;-72
2022/07/12 09:22:54;;;;;;;2.95;1.75;;;20.50;99.90;;;;;;5145847;27;45399;-72
2022/07/12 09:25:21;;;;;;;1.95;1.55;;;20.50;99.90;;;;;;5147129;27;46732;-71
2022/07/12 09:27:51;;;;;;;3.80;1.80;;;20.60;99.90;;;;;;5146553;27;45291;-70
2022/07/12 09:30:18;;;;;;;2.63;1.95;;;20.60;99.90;;;;;;5147506;27;45364;-72
2022/07/12 09:38:22;;;;;;;4.07;1.80;;;20.70;99.90;;;;;;5139566;27;45424;-71
2022/07/12 09:40:50;;;;;;;3.05;2.33;;;20.70;99.90;;;;;;5134419;27;45448;-70
2022/07/12 09:43:18;;;;;;;3.63;1.40;;;20.60;99.90;;;;;;5145167;27;45313;-71
2022/07/12 09:45:47;;;;;;;4.00;1.70;;;20.70;99.90;;;;;;5133264;27;47532;-71
2022/07/12 09:48:16;;;;;;;3.42;2.13;;;20.70;99.90;;;;;;5138950;27;45780;-71
2022/07/12 09:50:46;;;;;;;2.92;1.35;;;20.70;99.90;;;;;;5133814;27;45300;-71
2022/07/12 09:53:25;;;;;;;4.20;1.63;;;20.70;99.90;;;;;;5135957;27;45264;-72
2022/07/12 09:55:52;;;;;;;3.65;1.70;;;20.70;99.90;;;;;;5143326;27;45448;-71
2022/07/12 09:58:28;;;;;;;5.07;1.85;;;20.70;99.90;;;;;;5135474;27;45280;-72
2022/07/12 10:00:56;;;;;;;2.25;1.42;;;20.80;99.90;;;;;;5141232;27;45348;-72
2022/07/12 10:03:26;;;;;;;2.40;1.70;;;20.80;99.90;;;;;;5142635;27;45541;-71
2022/07/12 10:05:53;;;;;;;3.13;1.45;;;20.70;99.90;;;;;;5139181;27;46364;-70
2022/07/12 10:08:21;;;;;;;1.98;1.50;;;20.70;99.90;;;;;;5143736;27;45444;-72
2022/07/12 10:10:49;;;;;;;5.63;1.83;;;20.70;99.90;;;;;;5132556;27;45499;-68
2022/07/12 10:13:17;;;;;;;2.65;1.70;;;20.60;99.90;;;;;;5141039;27;45352;-71
2022/07/12 10:15:46;;;;;;;2.92;1.10;;;20.70;99.90;;;;;;5127438;27;47554;-71
2022/07/12 10:18:18;;;;;;;1.73;1.20;;;20.70;99.90;;;;;;5137255;27;45279;-71
2022/07/12 10:20:47;;;;;;;1.90;1.35;;;20.90;99.90;;;;;;5138628;27;45488;-72
2022/07/12 10:23:37;;;;;;;2.42;1.30;;;20.90;99.90;;;;;;5129034;27;45216;-71
2022/07/12 10:26:26;;;;;;;3.13;1.13;;;20.90;99.90;;;;;;5131284;27;47170;-71
2022/07/12 10:29:01;;;;;;;1.77;1.13;;;20.90;99.90;;;;;;5130159;27;45961;-71
2022/07/12 10:31:34;;;;;;;1.92;1.17;;;20.90;99.90;;;;;;5137047;27;45406;-71
2022/07/12 10:34:13;;;;;;;2.90;1.10;;;20.80;99.90;;;;;;5130519;27;45421;-71
2022/07/12 10:37:14;;;;;;;2.63;0.98;;;21.30;99.90;;;;;;5135661;27;45712;-70
2022/07/12 10:39:41;;;;;;;1.30;1.05;;;21.30;99.90;;;;;;5067271;28;45245;-71
2022/07/12 10:42:15;;;;;;;6.15;1.17;;;21.10;99.90;;;;;;5069736;28;45494;-71
2022/07/12 10:44:45;;;;;;;5.70;1.20;;;21.00;99.90;;;;;;5097208;27;45448;-70
2022/07/12 10:47:14;;;;;;;4.63;1.52;;;21.10;99.90;;;;;;5137518;27;47169;-71
2022/07/12 10:49:47;;;;;;;3.45;1.20;;;21.10;99.90;;;;;;5135654;27;45726;-71
2022/07/12 10:52:26;;;;;;;2.47;1.40;;;21.00;99.90;;;;;;5139076;27;45450;-70
2022/07/12 10:55:18;;;;;;;5.43;1.60;;;20.90;99.90;;;;;;5134765;27;45374;-71
2022/07/12 10:57:49;;;;;;;3.65;1.60;;;20.90;99.90;;;;;;5128407;27;46411;-71
2022/07/12 11:00:16;;;;;;;5.80;1.40;;;20.90;99.90;;;;;;5128822;27;45400;-71
2022/07/12 11:02:43;;;;;;;4.50;1.25;;;21.10;99.90;;;;;;5139886;27;45315;-71
2022/07/12 11:05:10;;;;;;;4.57;1.40;;;21.40;99.90;;;;;;5134996;27;45547;-71
2022/07/12 11:07:39;;;;;;;2.45;1.13;;;21.50;99.90;;;;;;5136226;27;46442;-71
2022/07/12 11:10:06;;;;;;;2.80;1.00;;;21.50;99.90;;;;;;5133207;27;45415;-72
2022/07/12 11:12:34;;;;;;;1.90;1.13;;;21.60;99.90;;;;;;5131666;27;45516;-71
2022/07/12 11:15:02;;;;;;;3.10;1.10;;;21.50;99.90;;;;;;5128273;27;45417;-71
2022/07/12 11:17:30;;;;;;;1.85;1.02;;;21.50;99.90;;;;;;5129439;27;47673;-71
2022/07/12 11:20:12;;;;;;;1.88;1.00;;;21.40;99.90;;;;;;5145088;27;46277;-70
2022/07/12 11:22:43;;;;;;;1.70;1.10;;;21.30;99.90;;;;;;5136206;27;45544;-70
2022/07/12 11:25:12;;;;;;;2.70;1.35;;;21.60;99.90;;;;;;5129165;27;45571;-70
2022/07/12 11:27:40;;;;;;;2.33;0.98;;;21.60;99.90;;;;;;5137177;27;46364;-71
2022/07/12 11:30:08;;;;;;;2.13;1.20;;;21.50;99.90;;;;;;5132160;27;45498;-71
2022/07/12 11:32:37;;;;;;;1.60;1.05;;;21.40;99.90;;;;;;5136224;27;45394;-70
2022/07/12 11:35:06;;;;;;;3.17;0.90;;;21.40;99.90;;;;;;5134799;27;45491;-70
2022/07/12 11:37:33;;;;;;;3.85;1.48;;;21.40;99.90;;;;;;5135154;27;47668;-70
2022/07/12 11:40:01;;;;;;;1.83;1.20;;;21.50;99.90;;;;;;5134809;27;45510;-70
2022/07/12 11:42:28;;;;;;;1.88;1.10;;;21.40;99.90;;;;;;5131452;27;45400;-70
2022/07/12 11:44:55;;;;;;;1.55;1.40;;;21.30;99.90;;;;;;5141576;27;45388;-70
2022/07/12 11:47:23;;;;;;;1.40;1.30;;;20.80;99.90;;;;;;5138557;27;49109;-70
2022/07/12 11:49:52;;;;;;;1.80;1.33;;;20.50;99.90;;;;;;5132267;27;45733;-72
2022/07/12 11:52:24;;;;;;;4.22;1.10;;;20.40;99.90;;;;;;5131913;27;45495;-69
2022/07/12 11:54:51;;;;;;;1.20;0.98;;;20.30;99.90;;;;;;5131278;27;45459;-71
2022/07/12 11:57:22;;;;;;;1.95;0.98;;;20.40;99.90;;;;;;5135133;27;47530;-70
2022/07/12 11:59:50;;;;;;;1.60;1.00;;;20.70;99.90;;;;;;5142380;27;45462;-70
2022/07/12 12:02:17;;;;;;;1.50;0.93;;;20.90;99.90;;;;;;5133325;27;45575;-71
2022/07/12 12:04:46;;;;;;;2.08;1.10;;;21.10;99.30;;;;;;5130533;27;45552;-70
2022/07/12 12:07:16;;;;;;;3.10;1.20;;;21.20;99.90;;;;;;5132916;27;45572;-70
2022/07/12 12:10:03;;;;;;;2.72;1.10;;;21.30;99.90;;;;;;5134628;27;45406;-70
2022/07/12 12:12:38;;;;;;;2.72;1.13;;;21.40;99.90;;;;;;5127984;27;45299;-71
2022/07/12 12:15:07;;;;;;;2.65;1.10;;;21.40;99.90;;;;;;5135372;27;45469;-70
2022/07/12 12:17:35;;;;;;;2.45;1.15;;;21.40;99.90;;;;;;5131951;27;46506;-70
2022/07/12 12:20:17;;;;;;;1.48;1.13;;;21.30;99.90;;;;;;5128520;27;45621;-69
2022/07/12 12:22:45;;;;;;;2.92;1.10;;;21.40;99.70;;;;;;5127834;27;45442;-70
2022/07/12 12:25:14;;;;;;;2.40;1.30;;;21.50;99.40;;;;;;5126128;27;45480;-70
2022/07/12 12:27:49;;;;;;;3.20;1.33;;;21.70;99.40;;;;;;5124052;27;46564;-70
2022/07/12 12:30:17;;;;;;;2.03;1.10;;;21.60;99.10;;;;;;5119540;27;45588;-70
2022/07/12 12:32:49;;;;;;;4.35;1.05;;;21.70;99.10;;;;;;5121050;27;45592;-70
2022/07/12 12:35:18;;;;;;;2.35;1.05;;;21.80;98.20;;;;;;5137389;27;45367;-70
2022/07/12 12:37:53;;;;;;;1.63;0.95;;;21.80;97.70;;;;;;5142356;27;45391;-70
2022/07/12 12:40:22;;;;;;;1.75;0.95;;;21.80;98.00;;;;;;5143078;27;45556;-71
2022/07/12 12:42:51;;;;;;;1.40;0.90;;;21.80;98.40;;;;;;5140255;27;45472;-70
2022/07/12 12:45:19;;;;;;;1.42;0.85;;;21.70;98.20;;;;;;5122911;27;45535;-70
2022/07/12 12:47:54;;;;;;;1.60;0.98;;;21.80;97.90;;;;;;5129878;27;46583;-70
2022/07/12 12:50:45;;;;;;;2.45;1.10;;;21.90;97.50;;;;;;5144725;27;45428;-70
2022/07/12 12:53:16;;;;;;;2.15;1.00;;;21.80;97.00;;;;;;5144307;27;45375;-70
2022/07/12 12:55:45;;;;;;;1.83;1.10;;;21.70;97.10;;;;;;5144728;27;45331;-71
2022/07/12 12:58:14;;;;;;;1.05;0.82;;;21.70;97.90;;;;;;5132463;27;48095;-70
2022/07/12 13:00:43;;;;;;;1.88;1.10;;;21.60;97.50;;;;;;5137417;27;45361;-70
2022/07/12 13:03:12;;;;;;;1.63;1.23;;;21.60;99.80;;;;;;5144750;27;45264;-70